Time;durP1;ratioP1;P1;durP2;ratioP2;P2;SDS_P1;SDS_P2;PMS_P1;PMS_P2;Temp;Humidity;BMP_temperature;BMP_pressure;BME280_temperature;BME280_humidity;BME280_pressure;Samples;Min_cycle;Max_cycle;Signal;HPM_P1;HPM_P2
2022/03/06 00:02:12;;;;;;;26.17;15.33;;;;;;;;;;4945701;29;20265;-84
2022/03/06 00:04:38;;;;;;;26.40;15.03;;;;;;;;;;4962404;28;20191;-84
2022/03/06 00:07:16;;;;;;;25.80;14.90;;;;;;;;;;4945722;29;20271;-84
2022/03/06 00:09:45;;;;;;;29.33;14.97;;;;;;;;;;4946565;29;20185;-84
2022/03/06 00:12:20;;;;;;;22.90;14.63;;;;;;;;;;4939379;29;20624;-84
2022/03/06 00:15:04;;;;;;;25.53;14.60;;;;;;;;;;4952680;29;20176;-82
2022/03/06 00:17:32;;;;;;;23.30;13.90;;;;;;;;;;4938441;28;20241;-84
2022/03/06 00:20:08;;;;;;;24.83;14.37;;;;;;;;;;4945220;29;20272;-84
2022/03/06 00:22:37;;;;;;;24.23;14.23;;;;;;;;;;4963579;29;20533;-84
2022/03/06 00:25:07;;;;;;;24.60;14.40;;;;;;;;;;4945445;29;20191;-84
2022/03/06 00:27:42;;;;;;;20.83;14.17;;;;;;;;;;4945431;28;20231;-82
2022/03/06 00:30:18;;;;;;;22.97;14.23;;;;;;;;;;4962282;28;20184;-84
2022/03/06 00:32:54;;;;;;;23.37;14.00;;;;;;;;;;4963074;29;20188;-84
2022/03/06 00:35:24;;;;;;;27.57;14.60;;;;;;;;;;4963142;29;20248;-84
2022/03/06 00:37:59;;;;;;;24.67;14.53;;;;;;;;;;4961680;28;20693;-84
2022/03/06 00:40:30;;;;;;;25.47;15.00;;;;;;;;;;4962099;28;20209;-84
2022/03/06 00:43:04;;;;;;;23.27;14.37;;;;;;;;;;4935201;29;20671;-84
2022/03/06 00:45:32;;;;;;;23.57;13.97;;;;;;;;;;4946010;29;20185;-84
2022/03/06 00:48:01;;;;;;;28.83;15.53;;;;;;;;;;4961082;28;20206;-84
2022/03/06 00:50:31;;;;;;;26.13;14.27;;;;;;;;;;4962367;28;20200;-84
2022/03/06 00:52:57;;;;;;;25.43;14.43;;;;;;;;;;4961675;28;20181;-84
2022/03/06 00:55:25;;;;;;;22.90;14.13;;;;;;;;;;4944040;29;20276;-84
2022/03/06 00:57:51;;;;;;;22.07;13.73;;;;;;;;;;4961687;28;20209;-84
2022/03/06 01:00:18;;;;;;;25.10;14.37;;;;;;;;;;4961438;28;20177;-84
2022/03/06 01:02:54;;;;;;;;;;;;;;;;;;;;;
2022/03/06 01:05:22;;;;;;;23.93;14.00;;;;;;;;;;4946033;29;20188;-84
2022/03/06 01:07:57;;;;;;;24.50;14.47;;;;;;;;;;4944010;29;20213;-84
2022/03/06 01:11:02;;;;;;;24.50;13.77;;;;;;;;;;4960863;29;20190;-84
2022/03/06 01:13:28;;;;;;;26.73;14.93;;;;;;;;;;4925636;29;20217;-84
2022/03/06 01:15:57;;;;;;;24.87;14.40;;;;;;;;;;4957430;29;20656;-84
2022/03/06 01:18:35;;;;;;;24.60;13.93;;;;;;;;;;4961420;28;20292;-83
2022/03/06 01:21:10;;;;;;;27.27;14.43;;;;;;;;;;4961710;29;20174;-83
2022/03/06 01:23:39;;;;;;;24.20;14.07;;;;;;;;;;4944101;29;20189;-83
2022/03/06 01:26:05;;;;;;;27.73;13.43;;;;;;;;;;4961118;28;20196;-83
2022/03/06 01:28:35;;;;;;;23.07;14.57;;;;;;;;;;4960918;28;20284;-83
2022/03/06 01:31:07;;;;;;;27.00;15.30;;;;;;;;;;4961066;28;20188;-84
2022/03/06 01:33:33;;;;;;;20.40;12.60;;;;;;;;;;4960856;28;20184;-83
2022/03/06 01:36:02;;;;;;;22.73;14.10;;;;;;;;;;4961399;29;20269;-83
2022/03/06 01:38:39;;;;;;;26.00;14.10;;;;;;;;;;4961063;28;20219;-83
2022/03/06 01:41:17;;;;;;;25.37;14.57;;;;;;;;;;4928470;29;20204;-83
2022/03/06 01:43:52;;;;;;;23.17;14.00;;;;;;;;;;4942140;29;20524;-83
2022/03/06 01:46:21;;;;;;;22.43;13.60;;;;;;;;;;4938978;29;20192;-83
2022/03/06 01:48:57;;;;;;;23.70;13.87;;;;;;;;;;4942972;29;20562;-83
2022/03/06 01:51:26;;;;;;;23.50;14.33;;;;;;;;;;4941294;29;20185;-84
2022/03/06 01:53:58;;;;;;;22.33;12.63;;;;;;;;;;4958428;28;20186;-85
2022/03/06 01:56:30;;;;;;;23.40;13.03;;;;;;;;;;4958712;28;20180;-84
2022/03/06 01:58:56;;;;;;;24.90;13.67;;;;;;;;;;4959615;28;20270;-85
2022/03/06 02:01:32;;;;;;;22.57;13.37;;;;;;;;;;4959015;28;20201;-85
2022/03/06 02:03:58;;;;;;;22.70;14.00;;;;;;;;;;4959206;28;20180;-83
2022/03/06 02:06:27;;;;;;;23.50;13.37;;;;;;;;;;4959369;28;20181;-83
2022/03/06 02:08:56;;;;;;;21.57;13.70;;;;;;;;;;4955262;28;20295;-83
2022/03/06 02:11:23;;;;;;;21.03;13.07;;;;;;;;;;4960563;28;20201;-84
2022/03/06 02:13:52;;;;;;;22.97;12.87;;;;;;;;;;4953562;28;20217;-83
2022/03/06 02:16:23;;;;;;;23.43;13.37;;;;;;;;;;4942385;29;20184;-84
2022/03/06 02:18:52;;;;;;;24.13;13.07;;;;;;;;;;4942813;29;20218;-84
2022/03/06 02:21:18;;;;;;;23.93;13.23;;;;;;;;;;4945665;29;20646;-84
2022/03/06 02:23:59;;;;;;;21.73;12.90;;;;;;;;;;4960262;28;20181;-84
2022/03/06 02:26:28;;;;;;;22.67;13.47;;;;;;;;;;4957056;29;20561;-84
2022/03/06 02:28:54;;;;;;;24.50;13.77;;;;;;;;;;4960441;28;20243;-84
2022/03/06 02:31:22;;;;;;;25.60;13.67;;;;;;;;;;4960574;28;20679;-83
2022/03/06 02:33:53;;;;;;;22.37;13.53;;;;;;;;;;4959533;29;20201;-84
2022/03/06 02:36:22;;;;;;;24.03;12.63;;;;;;;;;;4960077;29;20724;-84
2022/03/06 02:38:50;;;;;;;21.90;13.60;;;;;;;;;;4959779;28;20211;-84
2022/03/06 02:41:19;;;;;;;21.37;12.33;;;;;;;;;;4942261;29;20208;-83
2022/03/06 02:43:48;;;;;;;21.80;13.37;;;;;;;;;;4959619;28;20169;-84
2022/03/06 02:46:16;;;;;;;23.67;13.20;;;;;;;;;;4944260;28;20261;-84
2022/03/06 02:48:48;;;;;;;21.80;12.70;;;;;;;;;;4956161;28;20232;-83
2022/03/06 02:51:20;;;;;;;22.70;13.27;;;;;;;;;;4959828;28;20177;-84
2022/03/06 02:53:55;;;;;;;24.47;13.43;;;;;;;;;;4959393;28;20650;-83
2022/03/06 02:56:29;;;;;;;21.73;12.30;;;;;;;;;;4958717;29;20244;-83
2022/03/06 02:59:06;;;;;;;24.10;13.10;;;;;;;;;;4959748;28;20212;-83
2022/03/06 03:01:39;;;;;;;20.37;12.30;;;;;;;;;;4960325;29;20181;-83
2022/03/06 03:04:06;;;;;;;22.23;13.03;;;;;;;;;;4943266;29;20217;-83
2022/03/06 03:06:35;;;;;;;24.60;14.33;;;;;;;;;;4932584;29;20251;-84
2022/03/06 03:09:02;;;;;;;18.47;12.53;;;;;;;;;;4947943;29;20211;-84
2022/03/06 03:11:35;;;;;;;20.60;12.47;;;;;;;;;;4949757;29;20208;-84
2022/03/06 03:14:04;;;;;;;20.50;12.23;;;;;;;;;;4961415;28;20162;-84
2022/03/06 03:16:34;;;;;;;19.10;12.10;;;;;;;;;;4969819;28;20213;-84
2022/03/06 03:19:03;;;;;;;20.70;13.00;;;;;;;;;;4967238;28;20220;-84
2022/03/06 03:21:31;;;;;;;24.07;13.30;;;;;;;;;;4947537;29;20213;-84
2022/03/06 03:23:58;;;;;;;24.47;13.70;;;;;;;;;;4964625;28;20181;-83
2022/03/06 03:26:27;;;;;;;22.33;13.17;;;;;;;;;;4963821;28;20177;-84
2022/03/06 03:28:58;;;;;;;21.03;12.60;;;;;;;;;;4965056;28;20221;-83
2022/03/06 03:31:24;;;;;;;24.23;13.47;;;;;;;;;;4965214;28;20189;-84
2022/03/06 03:33:50;;;;;;;22.53;13.67;;;;;;;;;;4961761;29;20200;-84
2022/03/06 03:36:22;;;;;;;24.33;14.17;;;;;;;;;;4948267;29;20547;-83
2022/03/06 03:38:48;;;;;;;25.57;14.40;;;;;;;;;;4967666;28;20645;-83
2022/03/06 03:41:14;;;;;;;23.20;13.93;;;;;;;;;;4957064;28;20193;-83
2022/03/06 03:43:40;;;;;;;25.80;14.30;;;;;;;;;;4929948;29;20274;-83
2022/03/06 03:46:06;;;;;;;23.37;13.77;;;;;;;;;;4963944;28;20685;-83
2022/03/06 03:48:43;;;;;;;21.93;13.67;;;;;;;;;;4945187;29;20273;-83
2022/03/06 03:51:12;;;;;;;23.87;14.33;;;;;;;;;;4946120;29;20315;-83
2022/03/06 03:53:40;;;;;;;22.87;13.37;;;;;;;;;;4962766;28;20186;-83
2022/03/06 03:56:17;;;;;;;25.67;14.70;;;;;;;;;;4963719;28;20195;-83
2022/03/06 03:58:43;;;;;;;22.93;13.97;;;;;;;;;;4963198;28;20208;-83
2022/03/06 04:01:14;;;;;;;25.60;14.93;;;;;;;;;;4962044;28;20189;-83
2022/03/06 04:03:45;;;;;;;27.13;15.47;;;;;;;;;;4950692;29;20179;-83
2022/03/06 04:06:11;;;;;;;27.23;15.70;;;;;;;;;;4946208;29;20189;-83
2022/03/06 04:08:50;;;;;;;24.17;15.03;;;;;;;;;;4963473;28;20205;-83
2022/03/06 04:11:19;;;;;;;26.43;16.63;;;;;;;;;;4962800;29;20188;-84
2022/03/06 04:13:47;;;;;;;25.33;15.33;;;;;;;;;;4944808;28;20193;-84
2022/03/06 04:16:16;;;;;;;25.43;15.67;;;;;;;;;;4961646;28;20268;-84
2022/03/06 04:18:49;;;;;;;28.60;16.60;;;;;;;;;;4960740;28;20238;-84
2022/03/06 04:21:18;;;;;;;31.77;17.70;;;;;;;;;;4948682;29;20209;-84
2022/03/06 04:23:47;;;;;;;28.67;17.30;;;;;;;;;;4952506;29;20189;-84
2022/03/06 04:26:16;;;;;;;27.87;17.47;;;;;;;;;;4961141;28;20177;-84
2022/03/06 04:28:45;;;;;;;31.27;17.90;;;;;;;;;;4960191;28;20210;-83
2022/03/06 04:31:11;;;;;;;30.57;16.93;;;;;;;;;;4960894;28;20181;-84
2022/03/06 04:33:37;;;;;;;30.73;17.93;;;;;;;;;;4960815;28;20188;-84
2022/03/06 04:36:04;;;;;;;26.50;16.17;;;;;;;;;;4960852;28;20665;-84
2022/03/06 04:38:32;;;;;;;26.83;16.23;;;;;;;;;;4960184;28;20228;-84
2022/03/06 04:41:01;;;;;;;25.97;15.93;;;;;;;;;;4960520;28;20728;-84
2022/03/06 04:43:27;;;;;;;25.00;15.83;;;;;;;;;;4951268;28;20554;-84
2022/03/06 04:45:59;;;;;;;29.13;16.60;;;;;;;;;;4923704;29;20174;-84
2022/03/06 04:48:26;;;;;;;27.87;15.90;;;;;;;;;;4951651;28;20245;-84
2022/03/06 04:50:54;;;;;;;26.43;16.20;;;;;;;;;;4951451;28;20196;-84
2022/03/06 04:53:25;;;;;;;28.03;16.03;;;;;;;;;;4906357;29;20191;-84
2022/03/06 04:56:00;;;;;;;24.40;15.40;;;;;;;;;;4955524;29;20245;-84
2022/03/06 04:58:26;;;;;;;27.77;15.27;;;;;;;;;;4939243;29;20727;-83
2022/03/06 05:01:07;;;;;;;26.43;15.23;;;;;;;;;;4933448;29;20178;-84
2022/03/06 05:03:42;;;;;;;26.77;13.67;;;;;;;;;;4938604;29;20179;-84
2022/03/06 05:06:17;;;;;;;27.10;15.63;;;;;;;;;;4948449;29;20266;-84
2022/03/06 05:08:45;;;;;;;24.57;14.70;;;;;;;;;;4948623;28;20287;-84
2022/03/06 05:11:20;;;;;;;26.27;14.80;;;;;;;;;;4939778;29;20641;-84
2022/03/06 05:13:48;;;;;;;27.53;15.60;;;;;;;;;;4938074;29;20180;-84
2022/03/06 05:16:19;;;;;;;24.03;13.90;;;;;;;;;;4959605;29;20189;-84
2022/03/06 05:18:48;;;;;;;26.67;14.40;;;;;;;;;;4960426;28;20708;-84
2022/03/06 05:21:17;;;;;;;23.77;13.77;;;;;;;;;;4960887;29;20179;-83
2022/03/06 05:23:46;;;;;;;27.77;14.63;;;;;;;;;;4961604;28;20188;-84
2022/03/06 05:26:12;;;;;;;31.60;16.27;;;;;;;;;;4962126;28;20617;-84
2022/03/06 05:28:46;;;;;;;22.60;13.90;;;;;;;;;;4962283;28;20607;-83
2022/03/06 05:31:21;;;;;;;28.90;15.77;;;;;;;;;;4962160;29;20185;-83
2022/03/06 05:33:53;;;;;;;28.33;14.67;;;;;;;;;;4962091;29;20657;-84
2022/03/06 05:36:22;;;;;;;29.97;15.07;;;;;;;;;;4961720;28;20188;-84
2022/03/06 05:38:57;;;;;;;25.03;14.17;;;;;;;;;;4947180;28;20207;-84
2022/03/06 05:41:25;;;;;;;23.57;14.00;;;;;;;;;;4944514;29;20197;-84
2022/03/06 05:43:57;;;;;;;25.27;14.83;;;;;;;;;;4943554;29;20165;-83
2022/03/06 05:46:26;;;;;;;27.80;15.27;;;;;;;;;;4960134;29;20197;-83
2022/03/06 05:48:55;;;;;;;27.50;14.87;;;;;;;;;;4960697;28;20680;-84
2022/03/06 05:51:21;;;;;;;30.20;14.70;;;;;;;;;;4960303;28;20177;-83
2022/03/06 05:53:50;;;;;;;27.77;15.03;;;;;;;;;;4960142;28;20267;-84
2022/03/06 05:56:28;;;;;;;26.40;15.13;;;;;;;;;;4961644;28;20274;-84
2022/03/06 05:58:59;;;;;;;29.27;15.30;;;;;;;;;;4961002;28;20224;-84
2022/03/06 06:01:38;;;;;;;31.47;16.60;;;;;;;;;;4960162;29;20189;-83
2022/03/06 06:04:04;;;;;;;26.53;15.33;;;;;;;;;;4951900;29;20180;-83
2022/03/06 06:06:36;;;;;;;28.77;15.77;;;;;;;;;;4962074;28;20182;-83
2022/03/06 06:09:05;;;;;;;27.43;15.47;;;;;;;;;;4961185;28;20201;-83
2022/03/06 06:11:40;;;;;;;26.23;15.33;;;;;;;;;;4961077;28;20241;-83
2022/03/06 06:14:06;;;;;;;28.43;16.33;;;;;;;;;;4951486;29;20181;-83
2022/03/06 06:16:40;;;;;;;28.37;16.30;;;;;;;;;;4960090;28;20204;-83
2022/03/06 06:19:13;;;;;;;27.73;15.27;;;;;;;;;;4958830;29;20280;-83
2022/03/06 06:21:43;;;;;;;30.17;16.17;;;;;;;;;;4960045;29;20213;-82
2022/03/06 06:24:12;;;;;;;28.17;16.30;;;;;;;;;;4943315;29;20189;-82
2022/03/06 06:26:47;;;;;;;27.90;15.30;;;;;;;;;;4937415;29;20178;-83
2022/03/06 06:29:18;;;;;;;29.93;16.97;;;;;;;;;;4999219;23;20221;-82
2022/03/06 06:31:45;;;;;;;29.53;16.30;;;;;;;;;;4999911;28;20182;-81
2022/03/06 06:34:21;;;;;;;;;;;;;;;;;;;;;
2022/03/06 06:36:57;;;;;;;30.50;15.57;;;;;;;;;;4999552;28;20254;-82
2022/03/06 06:39:23;;;;;;;27.77;15.83;;;;;;;;;;4989326;28;20209;-84
2022/03/06 06:41:49;;;;;;;29.30;16.33;;;;;;;;;;4969840;28;20180;-82
2022/03/06 06:44:25;;;;;;;29.27;16.17;;;;;;;;;;4985746;28;20172;-82
2022/03/06 06:46:51;;;;;;;30.40;16.30;;;;;;;;;;4968091;28;20188;-82
2022/03/06 06:49:22;;;;;;;28.93;16.97;;;;;;;;;;4984290;28;20193;-82
2022/03/06 06:51:48;;;;;;;29.17;16.10;;;;;;;;;;4986644;28;20180;-83
2022/03/06 06:54:21;;;;;;;29.37;16.17;;;;;;;;;;4985645;28;20184;-82
2022/03/06 06:56:50;;;;;;;26.93;15.73;;;;;;;;;;4967688;28;20184;-83
2022/03/06 06:59:16;;;;;;;31.83;16.63;;;;;;;;;;4985039;28;20212;-83
2022/03/06 07:01:43;;;;;;;27.67;15.57;;;;;;;;;;4984937;28;20203;-83
2022/03/06 07:04:09;;;;;;;29.97;16.50;;;;;;;;;;4984933;28;20245;-82
2022/03/06 07:06:35;;;;;;;28.33;16.63;;;;;;;;;;4985398;28;20188;-83
2022/03/06 07:09:01;;;;;;;27.63;15.50;;;;;;;;;;4984612;28;20242;-83
2022/03/06 07:11:29;;;;;;;33.70;16.97;;;;;;;;;;4983568;28;20283;-83
2022/03/06 07:13:58;;;;;;;30.77;15.80;;;;;;;;;;4967333;28;20191;-83
2022/03/06 07:16:30;;;;;;;31.30;17.27;;;;;;;;;;4984579;28;20181;-83
2022/03/06 07:19:00;;;;;;;31.03;17.40;;;;;;;;;;4969596;28;20209;-82
2022/03/06 07:21:27;;;;;;;34.67;16.43;;;;;;;;;;4967987;28;20176;-82
2022/03/06 07:23:53;;;;;;;30.93;16.67;;;;;;;;;;4985125;28;20628;-82
2022/03/06 07:26:19;;;;;;;28.87;17.03;;;;;;;;;;4984091;28;20172;-81
2022/03/06 07:28:45;;;;;;;32.20;16.83;;;;;;;;;;4959790;28;20224;-82
2022/03/06 07:31:13;;;;;;;31.80;17.70;;;;;;;;;;4980184;28;20185;-82
2022/03/06 07:33:41;;;;;;;31.13;17.77;;;;;;;;;;4965810;28;20204;-82
2022/03/06 07:36:17;;;;;;;31.60;16.37;;;;;;;;;;4984913;28;20259;-81
2022/03/06 07:38:46;;;;;;;30.47;17.03;;;;;;;;;;4984289;28;20216;-82
2022/03/06 07:41:12;;;;;;;31.17;17.73;;;;;;;;;;4983999;28;20244;-81
2022/03/06 07:43:38;;;;;;;33.30;17.17;;;;;;;;;;4982980;28;20550;-83
2022/03/06 07:46:05;;;;;;;31.83;17.30;;;;;;;;;;4983823;28;20203;-82
2022/03/06 07:48:31;;;;;;;33.07;16.67;;;;;;;;;;4983146;28;20288;-81
2022/03/06 07:50:57;;;;;;;29.23;17.47;;;;;;;;;;4982688;28;20220;-80
2022/03/06 07:53:23;;;;;;;30.03;16.47;;;;;;;;;;4984978;28;20219;-82
2022/03/06 07:55:49;;;;;;;31.60;17.17;;;;;;;;;;4984536;28;20177;-82
2022/03/06 07:58:15;;;;;;;33.50;17.30;;;;;;;;;;4988591;28;20216;-81
2022/03/06 08:00:41;;;;;;;26.67;16.20;;;;;;;;;;4989282;28;20203;-82
2022/03/06 08:03:07;;;;;;;33.73;17.27;;;;;;;;;;4985329;28;20188;-81
2022/03/06 08:05:33;;;;;;;27.77;17.00;;;;;;;;;;4983952;28;20271;-82
2022/03/06 08:07:59;;;;;;;32.57;17.53;;;;;;;;;;4982716;28;20670;-81
2022/03/06 08:10:25;;;;;;;32.00;17.67;;;;;;;;;;4982222;28;20204;-81
2022/03/06 08:12:51;;;;;;;28.90;16.40;;;;;;;;;;4982349;28;20244;-81
2022/03/06 08:15:17;;;;;;;29.07;16.50;;;;;;;;;;4982008;28;20595;-80
2022/03/06 08:17:43;;;;;;;30.57;16.93;;;;;;;;;;4963905;28;20548;-82
2022/03/06 08:20:10;;;;;;;31.33;17.30;;;;;;;;;;4982943;28;20212;-84
2022/03/06 08:22:36;;;;;;;34.90;18.17;;;;;;;;;;4966192;28;20677;-82
2022/03/06 08:25:03;;;;;;;29.40;17.03;;;;;;;;;;4982911;28;20181;-82
2022/03/06 08:27:29;;;;;;;31.13;17.80;;;;;;;;;;4980581;28;20191;-82
2022/03/06 08:29:55;;;;;;;30.27;17.23;;;;;;;;;;4974177;28;20724;-82
2022/03/06 08:32:21;;;;;;;31.50;17.90;;;;;;;;;;4983224;28;20200;-82
2022/03/06 08:34:51;;;;;;;30.50;17.13;;;;;;;;;;4983693;28;20185;-82
2022/03/06 08:37:17;;;;;;;28.37;16.40;;;;;;;;;;4982375;28;20196;-82
2022/03/06 08:39:43;;;;;;;30.53;17.93;;;;;;;;;;4965092;28;20228;-82
2022/03/06 08:42:09;;;;;;;31.20;17.53;;;;;;;;;;4982830;28;20181;-81
2022/03/06 08:44:35;;;;;;;29.00;17.30;;;;;;;;;;4981345;28;20196;-81
2022/03/06 08:47:01;;;;;;;29.90;17.77;;;;;;;;;;4982180;28;20181;-81
2022/03/06 08:49:27;;;;;;;31.07;17.60;;;;;;;;;;4981979;28;20574;-80
2022/03/06 08:51:53;;;;;;;29.77;17.50;;;;;;;;;;4982389;28;20656;-81
2022/03/06 08:54:19;;;;;;;30.90;17.93;;;;;;;;;;4976522;28;20192;-80
2022/03/06 08:56:45;;;;;;;30.60;17.87;;;;;;;;;;4981832;28;20177;-80
2022/03/06 08:59:11;;;;;;;30.43;16.83;;;;;;;;;;4964891;28;20280;-80
2022/03/06 09:01:37;;;;;;;28.07;17.67;;;;;;;;;;4982185;28;20215;-80
2022/03/06 09:04:03;;;;;;;31.60;16.87;;;;;;;;;;4963892;28;20271;-80
2022/03/06 09:06:29;;;;;;;31.80;18.17;;;;;;;;;;4982530;28;20629;-79
2022/03/06 09:08:55;;;;;;;29.77;17.67;;;;;;;;;;4966184;28;20267;-80
2022/03/06 09:11:21;;;;;;;30.37;17.60;;;;;;;;;;4987255;28;20188;-80
2022/03/06 09:13:47;;;;;;;37.07;18.20;;;;;;;;;;4965707;28;20185;-81
2022/03/06 09:16:13;;;;;;;33.60;18.27;;;;;;;;;;4981633;28;20245;-81
2022/03/06 09:18:40;;;;;;;31.97;17.67;;;;;;;;;;4978567;28;20898;-81
2022/03/06 09:21:06;;;;;;;38.40;19.03;;;;;;;;;;4980224;28;20274;-83
2022/03/06 09:23:32;;;;;;;30.67;17.17;;;;;;;;;;4981355;28;20204;-81
2022/03/06 09:25:58;;;;;;;28.83;17.50;;;;;;;;;;4964561;28;20288;-81
2022/03/06 09:28:24;;;;;;;29.73;17.83;;;;;;;;;;4981565;28;20711;-79
2022/03/06 09:30:50;;;;;;;27.83;16.43;;;;;;;;;;4964793;28;20216;-80
2022/03/06 09:33:16;;;;;;;28.50;17.70;;;;;;;;;;4981870;28;20202;-81
2022/03/06 09:35:42;;;;;;;28.77;16.33;;;;;;;;;;4982059;28;20221;-81
2022/03/06 09:38:08;;;;;;;30.20;17.53;;;;;;;;;;4981508;28;20209;-82
2022/03/06 09:40:34;;;;;;;30.50;18.10;;;;;;;;;;4963656;28;20264;-81
2022/03/06 09:43:03;;;;;;;27.33;17.37;;;;;;;;;;4979830;28;20184;-81
2022/03/06 09:45:30;;;;;;;26.73;16.73;;;;;;;;;;4968870;28;20181;-81
2022/03/06 09:47:58;;;;;;;27.30;17.07;;;;;;;;;;4977897;28;20184;-81
2022/03/06 09:50:24;;;;;;;27.23;17.20;;;;;;;;;;4963907;28;20200;-82
2022/03/06 09:52:53;;;;;;;28.90;17.17;;;;;;;;;;4980783;28;20185;-81
2022/03/06 09:55:19;;;;;;;25.83;16.87;;;;;;;;;;4985747;28;20193;-81
2022/03/06 09:57:45;;;;;;;31.27;17.33;;;;;;;;;;4974542;28;20266;-79
2022/03/06 10:00:12;;;;;;;26.40;17.43;;;;;;;;;;4971820;28;20214;-79
2022/03/06 10:02:53;;;;;;;27.93;16.57;;;;;;;;;;4983591;28;20177;-80
2022/03/06 10:05:26;;;;;;;25.83;16.33;;;;;;;;;;4982005;28;20580;-80
2022/03/06 10:07:52;;;;;;;24.77;16.50;;;;;;;;;;4981975;28;20717;-81
2022/03/06 10:10:35;;;;;;;26.23;16.80;;;;;;;;;;4981512;28;20186;-80
2022/03/06 10:13:01;;;;;;;28.60;16.33;;;;;;;;;;4969275;28;20208;-81
2022/03/06 10:15:27;;;;;;;26.10;16.30;;;;;;;;;;4980951;28;20181;-81
2022/03/06 10:18:01;;;;;;;28.07;17.07;;;;;;;;;;4983692;28;20201;-79
2022/03/06 10:20:32;;;;;;;27.50;16.90;;;;;;;;;;4981645;28;20207;-79
2022/03/06 10:22:58;;;;;;;25.77;16.73;;;;;;;;;;4961928;28;20245;-78
2022/03/06 10:25:24;;;;;;;27.03;16.03;;;;;;;;;;4961957;28;20190;-80
2022/03/06 10:27:53;;;;;;;24.20;16.37;;;;;;;;;;4968658;28;20194;-79
2022/03/06 10:30:27;;;;;;;28.30;16.20;;;;;;;;;;4968553;28;20193;-81
2022/03/06 10:32:53;;;;;;;29.07;15.43;;;;;;;;;;4979319;28;20648;-81
2022/03/06 10:35:20;;;;;;;26.23;16.20;;;;;;;;;;4981191;28;20276;-82
2022/03/06 10:37:46;;;;;;;26.47;16.00;;;;;;;;;;4967162;28;20206;-81
2022/03/06 10:40:14;;;;;;;24.20;15.53;;;;;;;;;;4977788;28;20206;-80
2022/03/06 10:42:43;;;;;;;25.53;15.60;;;;;;;;;;4975230;28;20204;-79
2022/03/06 10:45:28;;;;;;;22.70;14.13;;;;;;;;;;4976259;28;20634;-80
2022/03/06 10:47:56;;;;;;;22.83;15.17;;;;;;;;;;4980584;28;20237;-82
2022/03/06 10:50:22;;;;;;;23.40;14.60;;;;;;;;;;4979872;28;20253;-82
2022/03/06 10:52:53;;;;;;;20.67;15.20;;;;;;;;;;4972390;28;20586;-83
2022/03/06 10:55:31;;;;;;;28.77;15.73;;;;;;;;;;4980114;28;20191;-80
2022/03/06 10:57:57;;;;;;;22.03;15.07;;;;;;;;;;4979316;28;20277;-80
2022/03/06 11:00:24;;;;;;;24.33;14.53;;;;;;;;;;4979837;28;20226;-83
2022/03/06 11:02:50;;;;;;;22.10;15.13;;;;;;;;;;4972462;28;20186;-81
2022/03/06 11:05:16;;;;;;;23.07;14.97;;;;;;;;;;4974558;28;20544;-80
2022/03/06 11:07:42;;;;;;;22.50;14.93;;;;;;;;;;4980700;28;20201;-82
2022/03/06 11:10:09;;;;;;;22.87;14.53;;;;;;;;;;4982085;28;20202;-82
2022/03/06 11:12:36;;;;;;;18.90;13.63;;;;;;;;;;4981874;28;20187;-81
2022/03/06 11:15:03;;;;;;;23.80;15.07;;;;;;;;;;4981352;28;20260;-82
2022/03/06 11:17:34;;;;;;;19.20;13.70;;;;;;;;;;4982160;28;20178;-82
2022/03/06 11:20:03;;;;;;;19.87;14.70;;;;;;;;;;4981902;28;20207;-82
2022/03/06 11:22:52;;;;;;;20.13;13.87;;;;;;;;;;4983931;28;20646;-81
2022/03/06 11:25:22;;;;;;;21.97;15.00;;;;;;;;;;4964217;28;20705;-81
2022/03/06 11:27:48;;;;;;;21.77;14.90;;;;;;;;;;4985633;28;20190;-81
2022/03/06 11:30:24;;;;;;;21.23;14.07;;;;;;;;;;4988087;28;20292;-82
2022/03/06 11:33:00;;;;;;;22.13;14.77;;;;;;;;;;4986562;28;20265;-80
2022/03/06 11:35:37;;;;;;;24.40;15.43;;;;;;;;;;4985449;28;20257;-82
2022/03/06 11:38:04;;;;;;;21.00;14.53;;;;;;;;;;4981297;28;20275;-81
2022/03/06 11:40:33;;;;;;;21.70;14.70;;;;;;;;;;4986865;28;20188;-81
2022/03/06 11:42:59;;;;;;;24.93;14.83;;;;;;;;;;4983035;28;20192;-79
2022/03/06 11:45:44;;;;;;;20.57;13.97;;;;;;;;;;4982998;28;20188;-81
2022/03/06 11:48:13;;;;;;;23.17;15.33;;;;;;;;;;4984110;28;20206;-80
2022/03/06 11:50:42;;;;;;;21.03;14.70;;;;;;;;;;4983746;28;20181;-82
2022/03/06 11:53:40;;;;;;;22.33;15.30;;;;;;;;;;4985076;28;20195;-81
2022/03/06 11:56:26;;;;;;;24.20;15.70;;;;;;;;;;4965942;28;20191;-81
2022/03/06 11:58:53;;;;;;;20.77;14.00;;;;;;;;;;4983766;28;20206;-81
2022/03/06 12:01:26;;;;;;;23.63;14.80;;;;;;;;;;4989221;28;20186;-80
2022/03/06 12:03:54;;;;;;;18.17;13.57;;;;;;;;;;4991119;28;20665;-80
2022/03/06 12:06:41;;;;;;;20.20;14.40;;;;;;;;;;4989545;28;20192;-81
2022/03/06 12:09:22;;;;;;;;;;;;;;;;;;;;;
2022/03/06 12:11:52;;;;;;;18.90;13.57;;;;;;;;;;4979908;28;20240;-83
2022/03/06 12:14:21;;;;;;;19.70;13.73;;;;;;;;;;4984413;28;20599;-81
2022/03/06 12:20:00;;;;;;;20.37;14.40;;;;;;;;;;4981846;28;20242;-82
2022/03/06 12:22:38;;;;;;;21.23;15.00;;;;;;;;;;4984880;28;20184;-82
2022/03/06 12:25:06;;;;;;;22.90;14.80;;;;;;;;;;4979692;28;20662;-80
2022/03/06 12:27:41;;;;;;;21.00;14.57;;;;;;;;;;4986358;28;20663;-82
2022/03/06 12:30:11;;;;;;;18.37;13.80;;;;;;;;;;4989223;28;20217;-82
2022/03/06 12:33:14;;;;;;;19.43;14.10;;;;;;;;;;4986829;28;20196;-82
2022/03/06 12:35:46;;;;;;;19.10;14.07;;;;;;;;;;4956907;28;20188;-83
2022/03/06 12:38:22;;;;;;;21.07;14.73;;;;;;;;;;5002418;23;20263;-85
2022/03/06 12:40:51;;;;;;;21.70;15.03;;;;;;;;;;4982136;28;20267;-86
2022/03/06 12:43:23;;;;;;;20.07;14.43;;;;;;;;;;4982560;28;20172;-85
2022/03/06 12:45:50;;;;;;;20.50;14.50;;;;;;;;;;4980493;28;20206;-86
2022/03/06 12:48:20;;;;;;;23.17;14.80;;;;;;;;;;4963390;28;20212;-85
2022/03/06 12:50:57;;;;;;;23.37;15.57;;;;;;;;;;4961170;28;20634;-85
2022/03/06 12:53:23;;;;;;;24.50;15.53;;;;;;;;;;4950094;28;20274;-85
2022/03/06 12:56:30;;;;;;;19.23;13.73;;;;;;;;;;4960162;28;20177;-86
2022/03/06 12:59:39;;;;;;;22.40;14.30;;;;;;;;;;4888610;29;20200;-86
2022/03/06 13:02:38;;;;;;;;;;;;;;;;;;;;;
2022/03/06 13:08:08;;;;;;;22.20;14.90;;;;;;;;;;4958488;28;20576;-85
2022/03/06 13:10:40;;;;;;;21.47;14.10;;;;;;;;;;4962135;28;20203;-85
2022/03/06 13:13:09;;;;;;;19.90;14.23;;;;;;;;;;4946031;28;20207;-85
2022/03/06 13:15:41;;;;;;;19.17;14.03;;;;;;;;;;4962592;28;20212;-85
2022/03/06 13:18:08;;;;;;;20.93;14.50;;;;;;;;;;4960462;28;20684;-86
2022/03/06 13:20:34;;;;;;;20.20;14.03;;;;;;;;;;4961849;28;20180;-85
2022/03/06 13:23:01;;;;;;;21.10;14.90;;;;;;;;;;4962769;28;20204;-84
2022/03/06 13:25:35;;;;;;;20.63;14.73;;;;;;;;;;4946492;29;20176;-85
2022/03/06 13:28:32;;;;;;;19.77;13.77;;;;;;;;;;4945300;29;20207;-85
2022/03/06 13:31:47;;;;;;;18.63;13.80;;;;;;;;;;4944797;29;20185;-85
2022/03/06 13:37:26;;;;;;;18.90;13.60;;;;;;;;;;4952864;28;20220;-84
2022/03/06 13:43:21;;;;;;;17.53;13.20;;;;;;;;;;4944830;28;20196;-84
2022/03/06 13:46:00;;;;;;;20.83;12.27;;;;;;;;;;4962770;28;20279;-84
2022/03/06 13:52:09;;;;;;;16.77;12.83;;;;;;;;;;4980204;28;20256;-85
2022/03/06 13:54:39;;;;;;;17.27;12.20;;;;;;;;;;4966601;28;20702;-85
2022/03/06 13:57:07;;;;;;;14.80;12.13;;;;;;;;;;4957241;28;20592;-83
2022/03/06 13:59:39;;;;;;;18.87;13.47;;;;;;;;;;4943368;29;20218;-83
2022/03/06 14:02:11;;;;;;;15.40;11.90;;;;;;;;;;4945170;28;20169;-85
2022/03/06 14:04:50;;;;;;;16.20;12.83;;;;;;;;;;4947949;29;20188;-83
2022/03/06 14:07:26;;;;;;;21.87;12.10;;;;;;;;;;4962515;28;20222;-84
2022/03/06 14:09:52;;;;;;;18.00;12.47;;;;;;;;;;4950765;29;20228;-86
2022/03/06 14:12:20;;;;;;;17.30;13.33;;;;;;;;;;4973320;28;20188;-84
2022/03/06 14:14:48;;;;;;;16.60;12.53;;;;;;;;;;4973809;28;20181;-84
2022/03/06 14:17:18;;;;;;;16.70;12.73;;;;;;;;;;4950835;29;20296;-84
2022/03/06 14:20:01;;;;;;;16.97;11.90;;;;;;;;;;4967084;28;20203;-85
2022/03/06 14:22:29;;;;;;;16.57;12.47;;;;;;;;;;4967236;28;20196;-85
2022/03/06 14:24:55;;;;;;;17.23;11.90;;;;;;;;;;4951326;29;20165;-86
2022/03/06 14:27:21;;;;;;;20.53;13.60;;;;;;;;;;4965410;28;20550;-84
2022/03/06 14:29:47;;;;;;;18.03;12.70;;;;;;;;;;4964127;28;20198;-87
2022/03/06 14:32:21;;;;;;;18.63;13.47;;;;;;;;;;4944770;29;20643;-86
2022/03/06 14:34:57;;;;;;;14.67;11.63;;;;;;;;;;4965272;28;20192;-87
2022/03/06 14:37:27;;;;;;;17.67;12.43;;;;;;;;;;4965235;28;20242;-86
2022/03/06 14:39:53;;;;;;;18.07;13.07;;;;;;;;;;4966896;28;20204;-86
2022/03/06 14:42:22;;;;;;;17.77;12.93;;;;;;;;;;4961933;28;20191;-86
2022/03/06 14:44:50;;;;;;;20.83;13.30;;;;;;;;;;4962944;28;20188;-87
2022/03/06 14:47:16;;;;;;;16.70;12.70;;;;;;;;;;4947202;29;20208;-85
2022/03/06 14:49:48;;;;;;;15.47;13.10;;;;;;;;;;4946933;29;20663;-86
2022/03/06 14:52:25;;;;;;;16.83;12.00;;;;;;;;;;4960653;28;20215;-85
2022/03/06 14:54:51;;;;;;;16.30;12.57;;;;;;;;;;4959361;28;20211;-83
2022/03/06 14:57:32;;;;;;;16.70;12.73;;;;;;;;;;4960008;28;20210;-84